sensor_id;sensor_type;location;lat;lon;timestamp;P1;durP1;ratioP1;P2;durP2;ratioP2
18933;SDS011;9599;53.706;10.384;2022-09-24T00:01:37;7.27;;;6.57;;
18933;SDS011;9599;53.706;10.384;2022-09-24T00:04:06;7.07;;;6.37;;
18933;SDS011;9599;53.706;10.384;2022-09-24T00:06:38;6.83;;;6.13;;
18933;SDS011;9599;53.706;10.384;2022-09-24T00:09:07;7.40;;;6.70;;
18933;SDS011;9599;53.706;10.384;2022-09-24T00:11:36;7.50;;;6.40;;
18933;SDS011;9599;53.706;10.384;2022-09-24T00:14:05;6.83;;;5.57;;
18933;SDS011;9599;53.706;10.384;2022-09-24T00:16:33;6.33;;;5.73;;
18933;SDS011;9599;53.706;10.384;2022-09-24T00:19:02;6.37;;;5.77;;
18933;SDS011;9599;53.706;10.384;2022-09-24T00:21:32;7.50;;;6.37;;
18933;SDS011;9599;53.706;10.384;2022-09-24T00:24:03;6.80;;;6.10;;
18933;SDS011;9599;53.706;10.384;2022-09-24T00:26:33;6.30;;;5.70;;
18933;SDS011;9599;53.706;10.384;2022-09-24T00:29:15;6.60;;;6.00;;
18933;SDS011;9599;53.706;10.384;2022-09-24T00:31:44;6.90;;;6.20;;
18933;SDS011;9599;53.706;10.384;2022-09-24T00:34:12;6.50;;;5.90;;
18933;SDS011;9599;53.706;10.384;2022-09-24T00:36:40;6.50;;;5.90;;
18933;SDS011;9599;53.706;10.384;2022-09-24T00:39:13;7.03;;;6.33;;
18933;SDS011;9599;53.706;10.384;2022-09-24T00:41:42;6.93;;;6.23;;
18933;SDS011;9599;53.706;10.384;2022-09-24T00:47:21;7.00;;;6.30;;
18933;SDS011;9599;53.706;10.384;2022-09-24T00:50:09;7.50;;;6.10;;
18933;SDS011;9599;53.706;10.384;2022-09-24T00:52:43;6.90;;;6.20;;
18933;SDS011;9599;53.706;10.384;2022-09-24T00:55:16;7.00;;;6.30;;
18933;SDS011;9599;53.706;10.384;2022-09-24T00:57:46;6.97;;;6.27;;
18933;SDS011;9599;53.706;10.384;2022-09-24T01:00:15;7.70;;;6.17;;
18933;SDS011;9599;53.706;10.384;2022-09-24T01:02:45;7.87;;;6.27;;
18933;SDS011;9599;53.706;10.384;2022-09-24T01:05:15;7.80;;;6.63;;
18933;SDS011;9599;53.706;10.384;2022-09-24T01:07:44;8.60;;;6.80;;
18933;SDS011;9599;53.706;10.384;2022-09-24T01:10:13;8.23;;;7.10;;
18933;SDS011;9599;53.706;10.384;2022-09-24T01:13:04;8.17;;;7.37;;
18933;SDS011;9599;53.706;10.384;2022-09-24T01:15:43;8.37;;;7.00;;
18933;SDS011;9599;53.706;10.384;2022-09-24T01:18:15;7.60;;;6.80;;
18933;SDS011;9599;53.706;10.384;2022-09-24T01:20:58;8.70;;;7.17;;
18933;SDS011;9599;53.706;10.384;2022-09-24T01:23:43;7.30;;;6.60;;
18933;SDS011;9599;53.706;10.384;2022-09-24T01:26:31;8.53;;;6.77;;
18933;SDS011;9599;53.706;10.384;2022-09-24T01:29:20;7.67;;;6.83;;
18933;SDS011;9599;53.706;10.384;2022-09-24T01:31:57;8.17;;;6.87;;
18933;SDS011;9599;53.706;10.384;2022-09-24T01:34:33;7.73;;;6.90;;
18933;SDS011;9599;53.706;10.384;2022-09-24T01:37:05;8.40;;;7.47;;
18933;SDS011;9599;53.706;10.384;2022-09-24T01:39:33;7.50;;;6.57;;
18933;SDS011;9599;53.706;10.384;2022-09-24T01:42:04;7.50;;;6.63;;
18933;SDS011;9599;53.706;10.384;2022-09-24T01:44:34;7.80;;;7.00;;
18933;SDS011;9599;53.706;10.384;2022-09-24T01:47:04;8.40;;;6.67;;
18933;SDS011;9599;53.706;10.384;2022-09-24T01:49:33;7.50;;;6.80;;
18933;SDS011;9599;53.706;10.384;2022-09-24T01:52:02;7.40;;;6.60;;
18933;SDS011;9599;53.706;10.384;2022-09-24T01:54:34;7.63;;;6.93;;
18933;SDS011;9599;53.706;10.384;2022-09-24T01:57:06;8.30;;;6.77;;
18933;SDS011;9599;53.706;10.384;2022-09-24T01:59:41;7.07;;;6.37;;
18933;SDS011;9599;53.706;10.384;2022-09-24T02:02:14;7.13;;;6.30;;
18933;SDS011;9599;53.706;10.384;2022-09-24T02:04:45;7.30;;;6.30;;
18933;SDS011;9599;53.706;10.384;2022-09-24T02:07:17;7.03;;;6.33;;
18933;SDS011;9599;53.706;10.384;2022-09-24T02:09:50;7.40;;;6.43;;
18933;SDS011;9599;53.706;10.384;2022-09-24T02:12:19;7.17;;;6.47;;
18933;SDS011;9599;53.706;10.384;2022-09-24T02:14:56;6.97;;;5.83;;
18933;SDS011;9599;53.706;10.384;2022-09-24T02:17:29;7.03;;;6.20;;
18933;SDS011;9599;53.706;10.384;2022-09-24T02:20:01;7.07;;;6.37;;
18933;SDS011;9599;53.706;10.384;2022-09-24T02:22:31;6.80;;;6.20;;
18933;SDS011;9599;53.706;10.384;2022-09-24T02:24:59;6.97;;;6.27;;
18933;SDS011;9599;53.706;10.384;2022-09-24T02:27:30;7.03;;;6.43;;
18933;SDS011;9599;53.706;10.384;2022-09-24T02:29:59;7.23;;;6.53;;
18933;SDS011;9599;53.706;10.384;2022-09-24T02:32:29;7.40;;;6.60;;
18933;SDS011;9599;53.706;10.384;2022-09-24T02:35:01;7.60;;;6.60;;
18933;SDS011;9599;53.706;10.384;2022-09-24T02:37:32;7.57;;;6.77;;
18933;SDS011;9599;53.706;10.384;2022-09-24T02:40:02;8.10;;;6.87;;
18933;SDS011;9599;53.706;10.384;2022-09-24T02:42:31;7.47;;;6.57;;
18933;SDS011;9599;53.706;10.384;2022-09-24T02:45:01;8.33;;;6.50;;
18933;SDS011;9599;53.706;10.384;2022-09-24T02:47:29;7.60;;;6.90;;
18933;SDS011;9599;53.706;10.384;2022-09-24T02:49:57;8.03;;;7.23;;
18933;SDS011;9599;53.706;10.384;2022-09-24T02:52:25;8.30;;;7.20;;
18933;SDS011;9599;53.706;10.384;2022-09-24T02:54:53;7.70;;;6.80;;
18933;SDS011;9599;53.706;10.384;2022-09-24T02:57:21;8.03;;;7.23;;
18933;SDS011;9599;53.706;10.384;2022-09-24T02:59:48;8.40;;;7.60;;
18933;SDS011;9599;53.706;10.384;2022-09-24T03:02:18;10.23;;;7.63;;
18933;SDS011;9599;53.706;10.384;2022-09-24T03:04:45;8.90;;;8.00;;
18933;SDS011;9599;53.706;10.384;2022-09-24T03:07:13;10.27;;;7.70;;
18933;SDS011;9599;53.706;10.384;2022-09-24T03:09:41;12.23;;;8.00;;
18933;SDS011;9599;53.706;10.384;2022-09-24T03:12:09;9.03;;;7.70;;
18933;SDS011;9599;53.706;10.384;2022-09-24T03:14:38;8.50;;;7.70;;
18933;SDS011;9599;53.706;10.384;2022-09-24T03:17:05;9.73;;;8.10;;
18933;SDS011;9599;53.706;10.384;2022-09-24T03:19:34;8.73;;;7.87;;
18933;SDS011;9599;53.706;10.384;2022-09-24T03:22:02;9.60;;;7.73;;
18933;SDS011;9599;53.706;10.384;2022-09-24T03:24:30;9.47;;;8.00;;
18933;SDS011;9599;53.706;10.384;2022-09-24T03:26:58;9.57;;;8.13;;
18933;SDS011;9599;53.706;10.384;2022-09-24T03:29:25;10.07;;;8.47;;
18933;SDS011;9599;53.706;10.384;2022-09-24T03:32:07;9.80;;;8.80;;
18933;SDS011;9599;53.706;10.384;2022-09-24T03:34:36;9.70;;;8.70;;
18933;SDS011;9599;53.706;10.384;2022-09-24T03:37:04;10.90;;;8.67;;
18933;SDS011;9599;53.706;10.384;2022-09-24T03:39:32;9.47;;;8.20;;
18933;SDS011;9599;53.706;10.384;2022-09-24T03:42:00;9.87;;;8.10;;
18933;SDS011;9599;53.706;10.384;2022-09-24T03:44:27;8.97;;;8.07;;
18933;SDS011;9599;53.706;10.384;2022-09-24T03:46:55;11.53;;;8.90;;
18933;SDS011;9599;53.706;10.384;2022-09-24T03:49:23;10.17;;;8.77;;
18933;SDS011;9599;53.706;10.384;2022-09-24T03:51:52;10.23;;;9.23;;
18933;SDS011;9599;53.706;10.384;2022-09-24T03:54:20;12.43;;;9.83;;
18933;SDS011;9599;53.706;10.384;2022-09-24T03:56:47;12.93;;;9.40;;
18933;SDS011;9599;53.706;10.384;2022-09-24T03:59:15;11.37;;;9.50;;
18933;SDS011;9599;53.706;10.384;2022-09-24T04:01:43;10.30;;;9.30;;
18933;SDS011;9599;53.706;10.384;2022-09-24T04:04:11;11.90;;;10.57;;
18933;SDS011;9599;53.706;10.384;2022-09-24T04:06:40;12.00;;;10.77;;
18933;SDS011;9599;53.706;10.384;2022-09-24T04:09:11;12.10;;;10.80;;
18933;SDS011;9599;53.706;10.384;2022-09-24T04:11:38;12.60;;;11.00;;
18933;SDS011;9599;53.706;10.384;2022-09-24T04:14:06;11.87;;;10.33;;
18933;SDS011;9599;53.706;10.384;2022-09-24T04:16:34;12.00;;;10.33;;
18933;SDS011;9599;53.706;10.384;2022-09-24T04:19:02;12.13;;;10.67;;
18933;SDS011;9599;53.706;10.384;2022-09-24T04:21:30;11.77;;;10.30;;
18933;SDS011;9599;53.706;10.384;2022-09-24T04:23:58;11.77;;;10.37;;
18933;SDS011;9599;53.706;10.384;2022-09-24T04:26:27;12.00;;;10.77;;
18933;SDS011;9599;53.706;10.384;2022-09-24T04:28:55;11.50;;;10.17;;
18933;SDS011;9599;53.706;10.384;2022-09-24T04:31:24;11.67;;;10.47;;
18933;SDS011;9599;53.706;10.384;2022-09-24T04:33:52;14.57;;;11.20;;
18933;SDS011;9599;53.706;10.384;2022-09-24T04:36:20;13.67;;;11.80;;
18933;SDS011;9599;53.706;10.384;2022-09-24T04:38:48;14.03;;;11.70;;
18933;SDS011;9599;53.706;10.384;2022-09-24T04:41:16;13.37;;;11.97;;
18933;SDS011;9599;53.706;10.384;2022-09-24T04:43:45;14.37;;;12.20;;
18933;SDS011;9599;53.706;10.384;2022-09-24T04:46:13;13.87;;;12.27;;
18933;SDS011;9599;53.706;10.384;2022-09-24T04:48:41;15.17;;;12.27;;
18933;SDS011;9599;53.706;10.384;2022-09-24T04:51:09;14.77;;;11.60;;
18933;SDS011;9599;53.706;10.384;2022-09-24T04:53:37;13.63;;;12.20;;
18933;SDS011;9599;53.706;10.384;2022-09-24T04:56:05;13.40;;;12.00;;
18933;SDS011;9599;53.706;10.384;2022-09-24T04:58:37;16.67;;;12.77;;
18933;SDS011;9599;53.706;10.384;2022-09-24T05:01:06;13.23;;;11.83;;
18933;SDS011;9599;53.706;10.384;2022-09-24T05:03:34;13.47;;;12.03;;
18933;SDS011;9599;53.706;10.384;2022-09-24T05:06:02;13.60;;;12.20;;
18933;SDS011;9599;53.706;10.384;2022-09-24T05:08:29;13.97;;;12.10;;
18933;SDS011;9599;53.706;10.384;2022-09-24T05:10:57;14.17;;;12.07;;
18933;SDS011;9599;53.706;10.384;2022-09-24T05:13:27;13.37;;;12.07;;
18933;SDS011;9599;53.706;10.384;2022-09-24T05:15:55;14.17;;;12.60;;
18933;SDS011;9599;53.706;10.384;2022-09-24T05:18:24;15.43;;;12.03;;
18933;SDS011;9599;53.706;10.384;2022-09-24T05:20:52;14.43;;;12.83;;
18933;SDS011;9599;53.706;10.384;2022-09-24T05:23:20;14.13;;;12.63;;
18933;SDS011;9599;53.706;10.384;2022-09-24T05:25:47;16.60;;;13.47;;
18933;SDS011;9599;53.706;10.384;2022-09-24T05:28:33;18.47;;;14.00;;
18933;SDS011;9599;53.706;10.384;2022-09-24T05:31:01;18.47;;;14.33;;
18933;SDS011;9599;53.706;10.384;2022-09-24T05:33:30;15.03;;;12.67;;
18933;SDS011;9599;53.706;10.384;2022-09-24T05:35:58;15.50;;;13.33;;
18933;SDS011;9599;53.706;10.384;2022-09-24T05:38:26;15.67;;;12.70;;
18933;SDS011;9599;53.706;10.384;2022-09-24T05:40:55;16.57;;;13.20;;
18933;SDS011;9599;53.706;10.384;2022-09-24T05:43:23;15.63;;;13.27;;
18933;SDS011;9599;53.706;10.384;2022-09-24T05:45:52;14.87;;;13.27;;
18933;SDS011;9599;53.706;10.384;2022-09-24T05:48:23;14.73;;;12.23;;
18933;SDS011;9599;53.706;10.384;2022-09-24T05:50:53;14.80;;;13.17;;
18933;SDS011;9599;53.706;10.384;2022-09-24T05:53:21;16.07;;;13.80;;
18933;SDS011;9599;53.706;10.384;2022-09-24T05:55:51;14.47;;;12.87;;
18933;SDS011;9599;53.706;10.384;2022-09-24T05:58:19;13.03;;;11.67;;
18933;SDS011;9599;53.706;10.384;2022-09-24T06:00:46;16.93;;;12.43;;
18933;SDS011;9599;53.706;10.384;2022-09-24T06:03:15;14.07;;;12.30;;
18933;SDS011;9599;53.706;10.384;2022-09-24T06:05:44;16.30;;;12.50;;
18933;SDS011;9599;53.706;10.384;2022-09-24T06:08:15;13.70;;;12.30;;
18933;SDS011;9599;53.706;10.384;2022-09-24T06:10:44;15.43;;;11.90;;
18933;SDS011;9599;53.706;10.384;2022-09-24T06:13:15;14.20;;;12.63;;
18933;SDS011;9599;53.706;10.384;2022-09-24T06:15:44;14.00;;;12.50;;
18933;SDS011;9599;53.706;10.384;2022-09-24T06:18:12;13.83;;;11.90;;
18933;SDS011;9599;53.706;10.384;2022-09-24T06:20:39;14.10;;;11.90;;
18933;SDS011;9599;53.706;10.384;2022-09-24T06:23:07;14.90;;;12.50;;
18933;SDS011;9599;53.706;10.384;2022-09-24T06:25:36;14.53;;;12.93;;
18933;SDS011;9599;53.706;10.384;2022-09-24T06:28:04;14.13;;;12.63;;
18933;SDS011;9599;53.706;10.384;2022-09-24T06:30:33;16.37;;;12.53;;
18933;SDS011;9599;53.706;10.384;2022-09-24T06:33:04;14.73;;;12.60;;
18933;SDS011;9599;53.706;10.384;2022-09-24T06:35:33;16.93;;;12.87;;
18933;SDS011;9599;53.706;10.384;2022-09-24T06:38:02;16.33;;;13.50;;
18933;SDS011;9599;53.706;10.384;2022-09-24T06:40:30;16.23;;;13.37;;
18933;SDS011;9599;53.706;10.384;2022-09-24T06:43:04;15.60;;;12.93;;
18933;SDS011;9599;53.706;10.384;2022-09-24T06:45:32;17.90;;;14.20;;
18933;SDS011;9599;53.706;10.384;2022-09-24T06:48:01;18.43;;;14.63;;
18933;SDS011;9599;53.706;10.384;2022-09-24T06:50:31;18.20;;;14.30;;
18933;SDS011;9599;53.706;10.384;2022-09-24T06:53:03;20.67;;;15.10;;
18933;SDS011;9599;53.706;10.384;2022-09-24T06:55:31;20.23;;;16.03;;
18933;SDS011;9599;53.706;10.384;2022-09-24T06:58:00;22.23;;;16.10;;
18933;SDS011;9599;53.706;10.384;2022-09-24T07:00:30;21.63;;;16.20;;
18933;SDS011;9599;53.706;10.384;2022-09-24T07:02:58;21.47;;;17.17;;
18933;SDS011;9599;53.706;10.384;2022-09-24T07:05:26;21.27;;;17.13;;
18933;SDS011;9599;53.706;10.384;2022-09-24T07:07:54;24.83;;;18.23;;
18933;SDS011;9599;53.706;10.384;2022-09-24T07:10:22;21.10;;;16.53;;
18933;SDS011;9599;53.706;10.384;2022-09-24T07:12:51;20.40;;;16.97;;
18933;SDS011;9599;53.706;10.384;2022-09-24T07:15:18;20.97;;;17.90;;
18933;SDS011;9599;53.706;10.384;2022-09-24T07:17:47;21.37;;;16.37;;
18933;SDS011;9599;53.706;10.384;2022-09-24T07:20:20;18.47;;;15.77;;
18933;SDS011;9599;53.706;10.384;2022-09-24T07:22:48;22.80;;;15.97;;
18933;SDS011;9599;53.706;10.384;2022-09-24T07:25:16;19.47;;;15.47;;
18933;SDS011;9599;53.706;10.384;2022-09-24T07:27:44;18.67;;;15.80;;
18933;SDS011;9599;53.706;10.384;2022-09-24T07:30:12;18.83;;;15.57;;
18933;SDS011;9599;53.706;10.384;2022-09-24T07:32:39;23.53;;;16.07;;
18933;SDS011;9599;53.706;10.384;2022-09-24T07:35:09;20.93;;;16.17;;
18933;SDS011;9599;53.706;10.384;2022-09-24T07:37:37;19.97;;;16.37;;
18933;SDS011;9599;53.706;10.384;2022-09-24T07:40:05;21.63;;;16.60;;
18933;SDS011;9599;53.706;10.384;2022-09-24T07:42:34;22.60;;;17.73;;
18933;SDS011;9599;53.706;10.384;2022-09-24T07:45:02;22.70;;;17.63;;
18933;SDS011;9599;53.706;10.384;2022-09-24T07:47:30;22.77;;;17.97;;
18933;SDS011;9599;53.706;10.384;2022-09-24T07:49:58;21.93;;;17.47;;
18933;SDS011;9599;53.706;10.384;2022-09-24T07:52:28;24.20;;;16.60;;
18933;SDS011;9599;53.706;10.384;2022-09-24T07:54:56;20.93;;;16.60;;
18933;SDS011;9599;53.706;10.384;2022-09-24T07:57:23;21.77;;;16.93;;
18933;SDS011;9599;53.706;10.384;2022-09-24T07:59:52;19.40;;;16.47;;
18933;SDS011;9599;53.706;10.384;2022-09-24T08:02:20;17.10;;;14.67;;
18933;SDS011;9599;53.706;10.384;2022-09-24T08:04:47;17.67;;;14.70;;
18933;SDS011;9599;53.706;10.384;2022-09-24T08:07:15;16.43;;;14.23;;
18933;SDS011;9599;53.706;10.384;2022-09-24T08:09:44;18.63;;;15.10;;
18933;SDS011;9599;53.706;10.384;2022-09-24T08:12:12;16.77;;;14.00;;
18933;SDS011;9599;53.706;10.384;2022-09-24T08:14:40;17.97;;;14.87;;
18933;SDS011;9599;53.706;10.384;2022-09-24T08:17:08;18.10;;;15.00;;
18933;SDS011;9599;53.706;10.384;2022-09-24T08:19:36;17.70;;;14.80;;
18933;SDS011;9599;53.706;10.384;2022-09-24T08:22:05;17.93;;;15.17;;
18933;SDS011;9599;53.706;10.384;2022-09-24T08:24:33;20.97;;;15.83;;
18933;SDS011;9599;53.706;10.384;2022-09-24T08:27:02;19.80;;;15.10;;
18933;SDS011;9599;53.706;10.384;2022-09-24T08:29:30;20.67;;;16.63;;
18933;SDS011;9599;53.706;10.384;2022-09-24T08:31:58;22.23;;;17.20;;
18933;SDS011;9599;53.706;10.384;2022-09-24T08:34:26;22.20;;;17.17;;
18933;SDS011;9599;53.706;10.384;2022-09-24T08:36:53;22.37;;;16.67;;
18933;SDS011;9599;53.706;10.384;2022-09-24T08:39:22;22.93;;;16.97;;
18933;SDS011;9599;53.706;10.384;2022-09-24T08:41:51;21.33;;;17.03;;
18933;SDS011;9599;53.706;10.384;2022-09-24T08:44:25;24.23;;;17.57;;
18933;SDS011;9599;53.706;10.384;2022-09-24T08:47:15;26.07;;;17.00;;
18933;SDS011;9599;53.706;10.384;2022-09-24T08:49:52;23.27;;;17.53;;
18933;SDS011;9599;53.706;10.384;2022-09-24T08:52:29;26.27;;;17.60;;
18933;SDS011;9599;53.706;10.384;2022-09-24T08:55:06;25.07;;;17.93;;
18933;SDS011;9599;53.706;10.384;2022-09-24T08:57:41;25.40;;;17.93;;
18933;SDS011;9599;53.706;10.384;2022-09-24T09:00:17;25.87;;;18.10;;
18933;SDS011;9599;53.706;10.384;2022-09-24T09:02:46;24.47;;;17.33;;
18933;SDS011;9599;53.706;10.384;2022-09-24T09:05:22;23.57;;;17.03;;
18933;SDS011;9599;53.706;10.384;2022-09-24T09:07:56;22.47;;;16.63;;
18933;SDS011;9599;53.706;10.384;2022-09-24T09:10:29;21.97;;;16.80;;
18933;SDS011;9599;53.706;10.384;2022-09-24T09:13:01;26.80;;;18.00;;
18933;SDS011;9599;53.706;10.384;2022-09-24T09:15:38;24.33;;;16.97;;
18933;SDS011;9599;53.706;10.384;2022-09-24T09:18:11;23.87;;;17.93;;
18933;SDS011;9599;53.706;10.384;2022-09-24T09:20:43;26.03;;;17.87;;
18933;SDS011;9599;53.706;10.384;2022-09-24T09:23:12;26.97;;;17.90;;
18933;SDS011;9599;53.706;10.384;2022-09-24T09:25:45;30.00;;;18.77;;
18933;SDS011;9599;53.706;10.384;2022-09-24T09:28:18;27.03;;;18.27;;
18933;SDS011;9599;53.706;10.384;2022-09-24T09:30:50;25.03;;;17.57;;
18933;SDS011;9599;53.706;10.384;2022-09-24T09:33:33;26.93;;;18.10;;
18933;SDS011;9599;53.706;10.384;2022-09-24T09:36:17;25.23;;;18.03;;
18933;SDS011;9599;53.706;10.384;2022-09-24T09:39:00;23.80;;;16.77;;
18933;SDS011;9599;53.706;10.384;2022-09-24T09:41:38;24.13;;;16.73;;
18933;SDS011;9599;53.706;10.384;2022-09-24T09:44:13;27.97;;;17.83;;
18933;SDS011;9599;53.706;10.384;2022-09-24T09:46:48;23.80;;;17.10;;
18933;SDS011;9599;53.706;10.384;2022-09-24T09:49:19;25.90;;;17.13;;
18933;SDS011;9599;53.706;10.384;2022-09-24T09:51:49;28.13;;;18.03;;
18933;SDS011;9599;53.706;10.384;2022-09-24T09:54:34;24.77;;;17.50;;
18933;SDS011;9599;53.706;10.384;2022-09-24T09:57:02;25.77;;;16.97;;
18933;SDS011;9599;53.706;10.384;2022-09-24T09:59:32;25.63;;;17.20;;
18933;SDS011;9599;53.706;10.384;2022-09-24T10:02:08;25.20;;;16.63;;
18933;SDS011;9599;53.706;10.384;2022-09-24T10:04:37;26.73;;;17.80;;
18933;SDS011;9599;53.706;10.384;2022-09-24T10:07:07;25.77;;;17.90;;
18933;SDS011;9599;53.706;10.384;2022-09-24T10:09:36;24.13;;;16.90;;
18933;SDS011;9599;53.706;10.384;2022-09-24T10:12:06;25.60;;;16.93;;
18933;SDS011;9599;53.706;10.384;2022-09-24T10:14:35;25.80;;;17.00;;
18933;SDS011;9599;53.706;10.384;2022-09-24T10:17:04;24.37;;;17.50;;
18933;SDS011;9599;53.706;10.384;2022-09-24T10:19:33;25.80;;;17.20;;
18933;SDS011;9599;53.706;10.384;2022-09-24T10:22:07;25.13;;;17.23;;
18933;SDS011;9599;53.706;10.384;2022-09-24T10:24:41;25.37;;;17.23;;
18933;SDS011;9599;53.706;10.384;2022-09-24T10:27:10;22.17;;;16.13;;
18933;SDS011;9599;53.706;10.384;2022-09-24T10:29:39;25.53;;;17.17;;
18933;SDS011;9599;53.706;10.384;2022-09-24T10:32:26;24.37;;;16.80;;
18933;SDS011;9599;53.706;10.384;2022-09-24T10:34:55;21.30;;;15.90;;
18933;SDS011;9599;53.706;10.384;2022-09-24T10:37:24;22.53;;;16.17;;
18933;SDS011;9599;53.706;10.384;2022-09-24T10:39:56;23.47;;;16.73;;
18933;SDS011;9599;53.706;10.384;2022-09-24T10:42:25;23.20;;;16.10;;
18933;SDS011;9599;53.706;10.384;2022-09-24T10:44:54;24.03;;;17.00;;
18933;SDS011;9599;53.706;10.384;2022-09-24T10:47:28;25.10;;;17.20;;
18933;SDS011;9599;53.706;10.384;2022-09-24T10:50:14;26.23;;;17.03;;
18933;SDS011;9599;53.706;10.384;2022-09-24T10:52:51;23.20;;;16.23;;
18933;SDS011;9599;53.706;10.384;2022-09-24T10:55:25;21.30;;;15.23;;
18933;SDS011;9599;53.706;10.384;2022-09-24T10:58:17;24.00;;;16.00;;
18933;SDS011;9599;53.706;10.384;2022-09-24T11:00:55;20.97;;;15.37;;
18933;SDS011;9599;53.706;10.384;2022-09-24T11:03:42;21.90;;;15.50;;
18933;SDS011;9599;53.706;10.384;2022-09-24T11:06:22;21.27;;;15.87;;
18933;SDS011;9599;53.706;10.384;2022-09-24T11:09:06;22.20;;;15.80;;
18933;SDS011;9599;53.706;10.384;2022-09-24T11:11:46;22.97;;;16.47;;
18933;SDS011;9599;53.706;10.384;2022-09-24T11:14:30;24.87;;;16.37;;
18933;SDS011;9599;53.706;10.384;2022-09-24T11:17:13;23.53;;;16.23;;
18933;SDS011;9599;53.706;10.384;2022-09-24T11:19:58;24.07;;;17.27;;
18933;SDS011;9599;53.706;10.384;2022-09-24T11:22:45;26.63;;;17.33;;
18933;SDS011;9599;53.706;10.384;2022-09-24T11:25:28;22.67;;;16.63;;
18933;SDS011;9599;53.706;10.384;2022-09-24T11:28:04;23.93;;;17.13;;
18933;SDS011;9599;53.706;10.384;2022-09-24T11:30:47;26.07;;;17.57;;
18933;SDS011;9599;53.706;10.384;2022-09-24T11:33:28;23.83;;;17.07;;
18933;SDS011;9599;53.706;10.384;2022-09-24T11:36:06;25.63;;;17.30;;
18933;SDS011;9599;53.706;10.384;2022-09-24T11:38:59;26.10;;;17.70;;
18933;SDS011;9599;53.706;10.384;2022-09-24T11:41:42;26.97;;;16.80;;
18933;SDS011;9599;53.706;10.384;2022-09-24T11:44:22;24.03;;;16.67;;
18933;SDS011;9599;53.706;10.384;2022-09-24T11:47:18;26.07;;;17.20;;
18933;SDS011;9599;53.706;10.384;2022-09-24T11:50:01;25.20;;;17.23;;
18933;SDS011;9599;53.706;10.384;2022-09-24T11:52:43;25.87;;;16.93;;
18933;SDS011;9599;53.706;10.384;2022-09-24T11:55:16;26.57;;;18.00;;
18933;SDS011;9599;53.706;10.384;2022-09-24T11:57:47;28.10;;;17.67;;
18933;SDS011;9599;53.706;10.384;2022-09-24T12:00:19;26.57;;;17.10;;
18933;SDS011;9599;53.706;10.384;2022-09-24T12:02:48;22.93;;;16.30;;
18933;SDS011;9599;53.706;10.384;2022-09-24T12:05:20;26.43;;;17.73;;
18933;SDS011;9599;53.706;10.384;2022-09-24T12:07:56;26.97;;;17.87;;
18933;SDS011;9599;53.706;10.384;2022-09-24T12:10:30;27.37;;;18.53;;
18933;SDS011;9599;53.706;10.384;2022-09-24T12:13:04;25.97;;;18.63;;
18933;SDS011;9599;53.706;10.384;2022-09-24T12:15:43;27.47;;;18.37;;
18933;SDS011;9599;53.706;10.384;2022-09-24T12:18:16;25.73;;;17.73;;
18933;SDS011;9599;53.706;10.384;2022-09-24T12:20:49;25.47;;;17.70;;
18933;SDS011;9599;53.706;10.384;2022-09-24T12:23:22;27.43;;;18.07;;
18933;SDS011;9599;53.706;10.384;2022-09-24T12:25:54;27.80;;;18.43;;
18933;SDS011;9599;53.706;10.384;2022-09-24T12:28:25;27.70;;;18.97;;
18933;SDS011;9599;53.706;10.384;2022-09-24T12:31:19;27.77;;;19.00;;
18933;SDS011;9599;53.706;10.384;2022-09-24T12:34:14;26.87;;;19.00;;
18933;SDS011;9599;53.706;10.384;2022-09-24T12:36:52;29.73;;;20.77;;
18933;SDS011;9599;53.706;10.384;2022-09-24T12:39:27;27.90;;;19.67;;
18933;SDS011;9599;53.706;10.384;2022-09-24T12:41:58;29.00;;;20.20;;
18933;SDS011;9599;53.706;10.384;2022-09-24T12:44:30;29.23;;;20.03;;
18933;SDS011;9599;53.706;10.384;2022-09-24T12:47:10;27.80;;;19.53;;
18933;SDS011;9599;53.706;10.384;2022-09-24T12:49:46;29.00;;;20.17;;
18933;SDS011;9599;53.706;10.384;2022-09-24T12:52:17;28.73;;;19.87;;
18933;SDS011;9599;53.706;10.384;2022-09-24T12:54:54;26.50;;;19.70;;
18933;SDS011;9599;53.706;10.384;2022-09-24T12:57:26;26.00;;;19.33;;
18933;SDS011;9599;53.706;10.384;2022-09-24T12:59:58;28.37;;;19.73;;
18933;SDS011;9599;53.706;10.384;2022-09-24T13:02:27;28.37;;;20.27;;
18933;SDS011;9599;53.706;10.384;2022-09-24T13:05:14;31.33;;;20.00;;
18933;SDS011;9599;53.706;10.384;2022-09-24T13:07:53;31.90;;;21.13;;
18933;SDS011;9599;53.706;10.384;2022-09-24T13:10:25;31.13;;;21.40;;
18933;SDS011;9599;53.706;10.384;2022-09-24T13:12:55;31.90;;;21.80;;
18933;SDS011;9599;53.706;10.384;2022-09-24T13:15:27;30.53;;;21.27;;
18933;SDS011;9599;53.706;10.384;2022-09-24T13:17:59;30.87;;;21.47;;
18933;SDS011;9599;53.706;10.384;2022-09-24T13:20:31;28.53;;;20.60;;
18933;SDS011;9599;53.706;10.384;2022-09-24T13:23:10;29.73;;;20.37;;
18933;SDS011;9599;53.706;10.384;2022-09-24T13:25:42;26.40;;;19.57;;
18933;SDS011;9599;53.706;10.384;2022-09-24T13:28:22;28.33;;;19.60;;
18933;SDS011;9599;53.706;10.384;2022-09-24T13:31:07;25.87;;;19.57;;
18933;SDS011;9599;53.706;10.384;2022-09-24T13:33:41;26.43;;;19.20;;
18933;SDS011;9599;53.706;10.384;2022-09-24T13:36:12;27.07;;;20.37;;
18933;SDS011;9599;53.706;10.384;2022-09-24T13:38:44;28.10;;;19.93;;
18933;SDS011;9599;53.706;10.384;2022-09-24T13:41:23;28.10;;;19.70;;
18933;SDS011;9599;53.706;10.384;2022-09-24T13:43:57;28.33;;;20.30;;
18933;SDS011;9599;53.706;10.384;2022-09-24T13:46:28;26.83;;;20.20;;
18933;SDS011;9599;53.706;10.384;2022-09-24T13:48:59;28.37;;;19.60;;
18933;SDS011;9599;53.706;10.384;2022-09-24T13:51:32;29.73;;;19.90;;
18933;SDS011;9599;53.706;10.384;2022-09-24T13:54:04;28.73;;;20.90;;
18933;SDS011;9599;53.706;10.384;2022-09-24T13:56:41;24.87;;;19.50;;
18933;SDS011;9599;53.706;10.384;2022-09-24T13:59:11;27.10;;;19.43;;
18933;SDS011;9599;53.706;10.384;2022-09-24T14:01:39;26.47;;;20.10;;
18933;SDS011;9599;53.706;10.384;2022-09-24T14:04:14;28.40;;;20.17;;
18933;SDS011;9599;53.706;10.384;2022-09-24T14:06:45;26.07;;;20.53;;
18933;SDS011;9599;53.706;10.384;2022-09-24T14:09:24;27.23;;;20.40;;
18933;SDS011;9599;53.706;10.384;2022-09-24T14:11:58;27.47;;;20.27;;
18933;SDS011;9599;53.706;10.384;2022-09-24T14:14:28;29.07;;;21.07;;
18933;SDS011;9599;53.706;10.384;2022-09-24T14:17:04;28.77;;;20.47;;
18933;SDS011;9599;53.706;10.384;2022-09-24T14:19:33;29.57;;;21.87;;
18933;SDS011;9599;53.706;10.384;2022-09-24T14:22:01;27.93;;;21.57;;
18933;SDS011;9599;53.706;10.384;2022-09-24T14:24:31;28.93;;;21.17;;
18933;SDS011;9599;53.706;10.384;2022-09-24T14:27:02;28.23;;;21.00;;
18933;SDS011;9599;53.706;10.384;2022-09-24T14:29:37;28.37;;;20.67;;
18933;SDS011;9599;53.706;10.384;2022-09-24T14:32:18;26.83;;;20.37;;
18933;SDS011;9599;53.706;10.384;2022-09-24T14:34:50;29.63;;;22.00;;
18933;SDS011;9599;53.706;10.384;2022-09-24T14:37:21;30.97;;;22.47;;
18933;SDS011;9599;53.706;10.384;2022-09-24T14:39:56;28.07;;;21.70;;
18933;SDS011;9599;53.706;10.384;2022-09-24T14:42:30;28.67;;;21.80;;
18933;SDS011;9599;53.706;10.384;2022-09-24T14:45:02;29.53;;;21.23;;
18933;SDS011;9599;53.706;10.384;2022-09-24T14:47:33;30.23;;;22.20;;
18933;SDS011;9599;53.706;10.384;2022-09-24T14:50:02;30.93;;;22.17;;
18933;SDS011;9599;53.706;10.384;2022-09-24T14:52:53;28.73;;;22.13;;
18933;SDS011;9599;53.706;10.384;2022-09-24T14:55:34;29.60;;;22.27;;
18933;SDS011;9599;53.706;10.384;2022-09-24T14:58:04;29.20;;;21.67;;
18933;SDS011;9599;53.706;10.384;2022-09-24T15:00:34;30.70;;;21.87;;